Time;durP1;ratioP1;P1;durP2;ratioP2;P2;SDS_P1;SDS_P2;PMS_P1;PMS_P2;Temp;Humidity;BMP_temperature;BMP_pressure;BME280_temperature;BME280_humidity;BME280_pressure;Samples;Min_cycle;Max_cycle;Signal;HPM_P1;HPM_P2
2022/06/21 00:05:38;;;;;;;5.80;4.20;;;;;;;12.55;78.16;98827.83;432238;1273;143793;-60
2022/06/21 00:15:42;;;;;;;4.30;3.90;;;;;;;12.53;78.26;98820.92;430530;1273;144539;-59
2022/06/21 00:25:46;;;;;;;4.10;3.80;;;;;;;12.47;78.20;98804.56;430585;1274;148692;-59
2022/06/21 00:35:53;;;;;;;4.80;4.10;;;;;;;12.11;78.50;98803.48;431205;1273;143029;-59
2022/06/21 00:45:57;;;;;;;5.40;4.70;;;;;;;11.96;78.97;98794.74;432646;1273;142718;-58
2022/06/21 00:56:06;;;;;;;5.40;4.30;;;;;;;11.64;79.00;98775.05;431328;1273;147051;-57
2022/06/21 01:06:13;;;;;;;8.30;5.70;;;;;;;11.30;79.68;98764.80;430807;1273;147002;-59
2022/06/21 01:16:18;;;;;;;8.10;5.70;;;;;;;11.03;80.27;98785.14;430588;1273;142833;-58
2022/06/21 01:26:42;;;;;;;8.30;7.20;;;;;;;11.11;80.74;98797.80;432067;1273;144045;-58
2022/06/21 01:36:50;;;;;;;10.40;8.50;;;;;;;11.24;80.92;98797.53;430767;1273;142764;-59
2022/06/21 01:46:55;;;;;;;8.40;7.60;;;;;;;11.25;80.80;98789.16;432528;1272;142922;-59
2022/06/21 01:56:59;;;;;;;7.40;6.80;;;;;;;11.30;80.69;98778.84;431800;1273;142299;-60
2022/06/21 02:07:07;;;;;;;6.80;6.20;;;;;;;11.43;80.66;98787.91;430582;1273;142366;-59
2022/06/21 02:17:16;;;;;;;8.80;6.50;;;;;;;11.39;80.37;98801.95;430553;1273;146028;-59
2022/06/21 02:27:23;;;;;;;7.10;5.10;;;;;;;11.22;80.21;98791.56;430607;1273;143090;-59
2022/06/21 02:37:28;;;;;;;6.30;5.40;;;;;;;10.89;80.03;98797.23;432013;1273;141674;-59
2022/06/21 02:47:38;;;;;;;4.90;4.50;;;;;;;10.72;80.07;98793.84;430245;1273;198454;-59
2022/06/21 02:57:48;;;;;;;3.80;3.50;;;;;;;10.69;79.72;98788.64;430898;1273;148412;-58
2022/06/21 03:07:56;;;;;;;3.60;3.20;;;;;;;11.03;79.58;98790.89;432571;1273;144131;-60
2022/06/21 03:18:05;;;;;;;3.40;2.70;;;;;;;11.50;78.17;98785.84;431712;1273;146239;-58
2022/06/21 03:28:29;;;;;;;8.30;3.00;;;;;;;11.31;77.33;98796.47;430813;1273;148299;-58
2022/06/21 03:38:32;;;;;;;4.10;2.70;;;;;;;11.29;77.47;98807.45;430407;1272;197196;-58
2022/06/21 03:48:41;;;;;;;10.50;3.50;;;;;;;11.70;76.77;98811.92;432726;1271;147856;-58
2022/06/21 03:58:54;;;;;;;5.20;2.00;;;;;;;12.47;75.62;98799.17;430662;1274;143297;-58
2022/06/21 04:09:02;;;;;;;5.60;2.70;;;;;;;12.60;74.00;98800.66;431790;1273;146192;-58
2022/06/21 04:19:10;;;;;;;4.30;3.00;;;;;;;12.17;74.09;98809.71;429929;1273;147328;-59
2022/06/21 04:29:20;;;;;;;2.70;2.40;;;;;;;12.38;73.65;98816.17;430619;1273;147646;-59
2022/06/21 04:39:29;;;;;;;5.60;2.70;;;;;;;13.98;73.24;98805.16;431386;1273;145777;-59
2022/06/21 04:49:37;;;;;;;1.80;1.70;;;;;;;16.09;68.00;98821.39;447174;1271;143162;-60
2022/06/21 04:59:44;;;;;;;3.50;1.70;;;;;;;14.48;67.87;98829.61;446420;1271;146552;-59
2022/06/21 05:09:49;;;;;;;6.30;2.40;;;;;;;13.89;68.35;98827.70;447172;1272;143061;-59
2022/06/21 05:19:57;;;;;;;3.10;2.30;;;;;;;15.24;68.09;98819.34;447104;1272;142974;-57
2022/06/21 05:30:05;;;;;;;6.70;2.40;;;;;;;15.95;65.13;98823.95;446509;1272;209313;-59
2022/06/21 05:40:18;;;;;;;4.40;1.40;;;;;;;19.79;62.68;98820.17;447013;1272;143535;-59
2022/06/21 05:50:27;;;;;;;3.70;1.10;;;;;;;21.67;56.44;98822.10;446083;1272;143753;-59
2022/06/21 06:00:36;;;;;;;3.00;1.00;;;;;;;19.70;55.47;98829.02;447264;1273;143309;-59
2022/06/21 06:10:47;;;;;;;3.70;1.70;;;;;;;18.08;56.65;98831.20;440284;1274;196007;-59
2022/06/21 06:20:58;;;;;;;1.00;0.80;;;;;;;25.60;51.89;98813.77;442119;1273;141861;-59
2022/06/21 06:31:09;;;;;;;1.70;0.80;;;;;;;23.55;46.26;98813.20;430472;1273;143149;-59
2022/06/21 06:41:17;;;;;;;4.60;1.30;;;;;;;19.12;49.74;98812.57;436611;1273;144105;-58
2022/06/21 06:51:41;;;;;;;7.80;3.10;;;;;;;16.43;53.52;98821.14;434628;1272;142212;-60
2022/06/21 07:01:49;;;;;;;6.60;1.80;;;;;;;15.06;56.76;98829.02;430187;1273;144218;-59
2022/06/21 07:12:02;;;;;;;2.50;1.40;;;;;;;15.61;57.42;98826.06;447269;1273;141413;-58
2022/06/21 07:22:14;;;;;;;1.50;0.90;;;;;;;15.12;57.32;98831.59;447181;1272;142863;-58
2022/06/21 07:32:22;;;;;;;11.00;2.90;;;;;;;16.24;57.71;98846.92;446588;1273;142283;-59
2022/06/21 07:42:30;;;;;;;4.60;0.70;;;;;;;19.98;50.40;98840.59;447276;1272;141624;-59
2022/06/21 07:52:40;;;;;;;3.00;0.90;;;;;;;17.28;51.92;98851.61;440475;1273;143398;-59
2022/06/21 08:13:10;;;;;;;1.90;0.90;;;;;;;15.02;56.39;98873.27;447422;1272;146194;-59
2022/06/21 08:23:27;;;;;;;2.40;0.70;;;;;;;14.95;57.29;98877.28;429664;1307;600540;-60
2022/06/21 08:33:42;;;;;;;3.80;1.00;;;;;;;16.87;55.74;98861.20;443082;1282;197407;-59
2022/06/21 08:44:10;;;;;;;2.00;0.70;;;;;;;18.31;53.93;98877.00;427740;1284;141554;-60
2022/06/21 08:54:34;;;;;;;0.70;0.70;;;;;;;18.57;52.35;98870.38;427331;1285;141334;-60
2022/06/21 09:04:49;;;;;;;1.90;0.80;;;;;;;17.18;52.68;98881.48;442987;1283;144257;-60
2022/06/21 09:15:17;;;;;;;1.70;0.60;;;;;;;16.67;53.94;98891.61;442764;1284;141024;-59
2022/06/21 09:25:28;;;;;;;1.70;0.70;;;;;;;17.85;51.86;98881.52;443043;1284;140946;-60
2022/06/21 09:35:43;;;;;;;2.70;1.50;;;;;;;17.32;51.30;98888.23;441957;1285;143886;-59
2022/06/21 09:45:59;;;;;;;1.60;0.90;;;;;;;17.03;52.83;98886.21;433861;1284;142364;-57
2022/06/21 09:56:13;;;;;;;4.30;0.70;;;;;;;17.91;51.76;98887.98;435453;1284;141660;-59
2022/06/21 10:06:29;;;;;;;1.60;0.90;;;;;;;18.11;50.25;98881.70;426731;1284;142554;-59
2022/06/21 10:17:03;;;;;;;3.60;0.60;;;;;;;18.59;49.11;98873.01;426456;1284;139492;-59
2022/06/21 10:27:31;;;;;;;3.80;0.90;;;;;;;18.59;48.48;98882.15;428370;1284;143971;-58
2022/06/21 10:37:51;;;;;;;2.30;1.30;;;;;;;18.40;47.21;98874.68;426925;1284;141391;-60
2022/06/21 10:48:27;;;;;;;3.80;0.80;;;;;;;17.05;48.28;98901.42;426591;1283;140921;-59
2022/06/21 10:58:45;;;;;;;2.20;0.60;;;;;;;17.14;49.25;98903.51;427145;1284;140710;-57
2022/06/21 11:08:59;;;;;;;6.00;0.90;;;;;;;17.36;48.81;98917.27;428640;1282;143946;-60
2022/06/21 11:19:15;;;;;;;1.50;0.60;;;;;;;17.52;48.82;98919.84;427360;1282;142189;-59
2022/06/21 11:29:39;;;;;;;1.00;0.70;;;;;;;17.45;49.12;98936.81;427189;1282;141471;-59
2022/06/21 11:39:55;;;;;;;1.60;0.50;;;;;;;17.34;49.26;98936.56;427702;1283;142286;-59
2022/06/21 11:50:12;;;;;;;3.70;0.90;;;;;;;17.27;49.50;98938.81;427240;1282;141480;-59
2022/06/21 12:00:24;;;;;;;5.60;1.20;;;;;;;17.67;49.95;98936.84;427668;1282;141292;-60
2022/06/21 12:10:42;;;;;;;7.60;1.10;;;;;;;18.55;48.67;98920.85;428807;1277;194725;-59
2022/06/21 12:20:52;;;;;;;1.10;0.60;;;;;;;19.07;47.84;98927.22;429480;1278;141913;-57
2022/06/21 12:31:00;;;;;;;2.20;0.50;;;;;;;19.04;47.25;98931.60;428996;1278;142847;-58
2022/06/21 12:41:18;;;;;;;15.10;1.20;;;;;;;19.05;46.54;98938.54;429299;1278;141392;-60
2022/06/21 12:51:37;;;;;;;1.70;1.60;;;;;;;18.08;48.45;98962.92;428598;1277;143157;-59
2022/06/21 13:01:49;;;;;;;1.00;0.50;;;;;;;17.15;52.73;98969.02;430587;1277;141549;-59
2022/06/21 13:12:11;;;;;;;7.40;1.80;;;;;;;17.86;52.66;98954.89;429657;1277;142851;-59
2022/06/21 13:22:34;;;;;;;3.10;0.80;;;;;;;18.36;50.53;98951.70;428465;1279;145939;-59
2022/06/21 13:32:50;;;;;;;1.30;0.60;;;;;;;18.66;49.55;98942.30;428726;1277;141643;-59
2022/06/21 13:43:02;;;;;;;1.30;0.50;;;;;;;18.42;49.43;98939.52;428562;1277;187151;-59
2022/06/21 13:53:17;;;;;;;2.40;0.70;;;;;;;18.09;49.28;98937.30;428449;1277;141206;-59
2022/06/21 14:03:36;;;;;;;1.10;0.70;;;;;;;18.37;48.70;98936.60;429149;1277;143433;-58
2022/06/21 14:13:50;;;;;;;1.50;0.90;;;;;;;18.76;47.55;98936.77;430678;1277;140628;-57
2022/06/21 14:24:03;;;;;;;3.60;0.40;;;;;;;18.30;47.30;98926.59;428906;1277;141290;-59
2022/06/21 14:34:15;;;;;;;3.50;0.80;;;;;;;18.45;47.90;98930.70;430383;1277;142336;-59
2022/06/21 14:44:27;;;;;;;1.20;1.10;;;;;;;18.64;47.26;98933.09;429498;1277;141316;-57
2022/06/21 14:54:58;;;;;;;1.60;0.40;;;;;;;18.11;47.40;98958.63;429351;1277;141108;-59
2022/06/21 15:05:13;;;;;;;0.80;0.50;;;;;;;17.11;49.18;98972.26;428630;1277;144576;-60
2022/06/21 15:15:25;;;;;;;2.70;0.80;;;;;;;16.64;50.95;98979.95;429314;1277;141901;-60
2022/06/21 15:25:54;;;;;;;16.90;1.60;;;;;;;16.51;51.84;98987.89;428726;1277;146238;-59
2022/06/21 15:36:10;;;;;;;1.90;0.80;;;;;;;16.62;51.89;98991.23;429313;1277;152539;-60
2022/06/21 15:46:22;;;;;;;3.10;0.90;;;;;;;16.36;52.32;98999.44;429644;1277;141352;-60
2022/06/21 15:56:50;;;;;;;3.20;0.80;;;;;;;16.45;52.82;98996.85;428631;1276;141957;-58
2022/06/21 16:07:00;;;;;;;2.10;0.50;;;;;;;17.12;52.08;98999.36;432142;1276;141433;-59
2022/06/21 16:17:09;;;;;;;0.70;0.50;;;;;;;17.28;51.89;98991.08;430185;1276;141560;-60
2022/06/21 16:27:25;;;;;;;2.10;0.70;;;;;;;17.48;51.33;98981.84;431141;1276;142526;-59
2022/06/21 16:37:39;;;;;;;1.30;1.20;;;;;;;17.06;51.26;98972.77;429448;1277;141081;-59
2022/06/21 16:48:05;;;;;;;3.40;1.20;;;;;;;17.01;51.42;98972.60;429820;1276;142209;-58
2022/06/21 16:58:12;;;;;;;1.50;0.90;;;;;;;16.98;51.64;98972.17;432142;1276;141226;-60
2022/06/21 17:08:23;;;;;;;3.20;1.10;;;;;;;16.93;51.99;98979.52;442314;1276;144325;-59
2022/06/21 17:18:38;;;;;;;2.20;0.70;;;;;;;16.94;52.47;98984.33;430538;1276;140786;-60
2022/06/21 17:28:54;;;;;;;4.10;0.80;;;;;;;17.03;53.15;98983.86;436275;1276;192031;-59
2022/06/21 17:39:14;;;;;;;2.80;1.10;;;;;;;16.96;53.59;98982.10;445576;1277;141174;-60
2022/06/21 17:49:24;;;;;;;1.80;0.80;;;;;;;16.62;54.90;98980.66;443614;1276;140698;-59
2022/06/21 17:59:33;;;;;;;4.30;0.60;;;;;;;16.30;56.47;98971.01;439606;1276;141051;-60
2022/06/21 18:09:52;;;;;;;2.50;1.00;;;;;;;16.23;57.87;98967.69;441785;1276;141320;-59
2022/06/21 18:20:09;;;;;;;6.10;1.20;;;;;;;16.21;58.64;98968.77;430426;1276;152030;-59
2022/06/21 18:30:26;;;;;;;4.80;1.80;;;;;;;16.19;59.24;98971.92;435387;1276;141825;-60
2022/06/21 18:40:43;;;;;;;7.70;1.10;;;;;;;16.13;59.68;98977.65;433611;1276;200656;-59
2022/06/21 18:50:56;;;;;;;1.50;1.30;;;;;;;16.09;60.23;98971.77;443408;1276;142189;-60
2022/06/21 19:01:10;;;;;;;2.00;1.20;;;;;;;15.90;60.67;98973.81;430987;1276;141497;-60
2022/06/21 19:11:30;;;;;;;1.90;1.20;;;;;;;15.26;61.77;98974.84;428863;1276;145561;-60
2022/06/21 19:21:42;;;;;;;2.00;1.30;;;;;;;14.73;63.11;98986.00;430408;1277;140095;-60
2022/06/21 19:32:16;;;;;;;6.00;1.60;;;;;;;14.17;64.52;98998.69;429876;1276;141861;-60
2022/06/21 19:42:37;;;;;;;3.60;1.80;;;;;;;13.67;65.69;99013.04;430365;1276;147004;-59
2022/06/21 19:52:44;;;;;;;4.20;2.10;;;;;;;13.29;66.75;99016.23;428854;1276;140902;-60
2022/06/21 20:02:52;;;;;;;5.00;1.90;;;;;;;12.97;67.54;99015.40;429177;1276;142905;-59
2022/06/21 20:13:03;;;;;;;;;;;;;;;12.87;68.31;99025.17;429996;1276;141693;-59
2022/06/21 20:23:25;;;;;;;3.30;1.90;;;;;;;12.95;68.59;99020.51;428735;1276;131601;-60
2022/06/21 20:33:37;;;;;;;5.00;2.80;;;;;;;12.90;69.00;99027.95;429030;1276;304143;-59
2022/06/21 20:43:51;;;;;;;4.70;2.30;;;;;;;12.81;69.43;99034.48;430129;1276;145164;-59
2022/06/21 20:54:20;;;;;;;2.30;1.40;;;;;;;13.03;68.91;99038.46;429320;1276;146015;-59
2022/06/21 21:04:31;;;;;;;3.40;2.00;;;;;;;13.34;67.42;99033.41;429493;1276;145884;-59
2022/06/21 21:14:41;;;;;;;2.50;1.50;;;;;;;13.38;66.75;99040.25;428925;1276;144883;-58
2022/06/21 21:24:51;;;;;;;2.10;1.00;;;;;;;13.42;66.17;99052.95;429656;1276;142416;-60
2022/06/21 21:35:10;;;;;;;3.50;1.20;;;;;;;13.38;65.97;99061.86;428808;1276;142029;-59
2022/06/21 21:45:15;;;;;;;;;;;;;;;13.20;66.10;99065.66;430173;1276;145970;-57
2022/06/21 21:55:24;;;;;;;3.80;1.90;;;;;;;13.03;66.32;99079.50;430320;1276;128036;-57
2022/06/21 22:05:31;;;;;;;;;;;;;;;12.84;66.59;99066.72;429444;1276;145995;-58
2022/06/21 22:15:47;;;;;;;5.90;1.60;;;;;;;12.64;66.77;99066.17;431352;1276;127255;-59
2022/06/21 22:25:59;;;;;;;1.70;1.20;;;;;;;12.43;67.19;99067.19;431283;1276;141696;-59
2022/06/21 22:36:07;;;;;;;4.50;1.70;;;;;;;12.24;67.66;99067.75;429917;1275;142259;-60
2022/06/21 22:46:18;;;;;;;3.30;2.10;;;;;;;12.05;68.06;99076.41;430258;1276;143843;-59
2022/06/21 22:56:27;;;;;;;1.70;1.60;;;;;;;11.92;68.46;99075.65;430630;1274;141320;-59
2022/06/21 23:06:40;;;;;;;3.60;1.60;;;;;;;11.74;68.81;99069.80;431482;1276;142366;-60
2022/06/21 23:16:50;;;;;;;2.60;1.60;;;;;;;11.59;69.20;99066.10;430058;1276;140402;-59
2022/06/21 23:27:01;;;;;;;1.90;1.80;;;;;;;11.40;69.70;99072.45;429576;1276;141286;-59
2022/06/21 23:37:14;;;;;;;1.80;1.40;;;;;;;11.05;70.46;99084.80;429704;1276;145275;-60
2022/06/21 23:47:27;;;;;;;2.10;1.70;;;;;;;10.75;71.11;99091.17;429244;1275;142858;-58
2022/06/21 23:57:34;;;;;;;2.40;1.20;;;;;;;10.51;71.83;99093.64;429728;1276;142547;-58
